This is the latest recevied weather packets stored in our database for station/object KK7PZE-13. If no packets are shown the sender has not sent any weather packets the latest 1 day(s).
| Time | Temp. | Humidity | Pressure | Rain* | Wind** | Luminosity | Snow |
|---|---|---|---|---|---|---|---|
| 1777994930 | 16.11° C | 66% | 1011.1 hPa | 0 mm | 1.34 m/s, 190° | - | - |
| 1777994328 | 16.11° C | 71% | 1011.2 hPa | 0 mm | 0.89 m/s, 119° | - | - |
| 1777993729 | 15.56° C | 70% | 1011 hPa | 0 mm | 2.24 m/s, 211° | - | - |
| 1777993128 | 15.56° C | 71% | 1010.9 hPa | 0 mm | 1.34 m/s, 114° | - | - |
| 1777991930 | 15.56° C | 73% | 1011.1 hPa | 0 mm | 3.13 m/s, 168° | - | - |
| 1777991337 | 15.56° C | 72% | 1011 hPa | 0 mm | 1.34 m/s, 123° | - | - |
| 1777990728 | 15.56° C | 71% | 1011.2 hPa | 0 mm | 1.34 m/s, 145° | - | - |
| 1777990376 | 15.56° C | 71% | 1011.1 hPa | 0 mm | 2.24 m/s, 170° | - | - |
| 1777990128 | 15.56° C | 71% | 1011.1 hPa | 0 mm | 2.24 m/s, 170° | - | - |
| 1777989528 | 15.56° C | 72% | 1011.1 hPa | 0 mm | 2.24 m/s, 107° | - | - |
| 1777988929 | 15° C | 73% | 1011.1 hPa | 0 mm | 1.79 m/s, 118° | - | - |
| 1777988328 | 15° C | 74% | 1011 hPa | 0 mm | 1.34 m/s, 131° | - | - |
| 1777987891 | 15° C | 75% | 1011 hPa | 0 mm | 1.34 m/s, 118° | - | - |
| 1777987728 | 15° C | 75% | 1011 hPa | 0 mm | 1.34 m/s, 118° | - | - |
| 1777987128 | 15° C | 75% | 1010.9 hPa | 0 mm | 1.79 m/s, 131° | - | - |
| 1777986797 | 15° C | 75% | 1010.9 hPa | 0 mm | 0.89 m/s, 111° | - | - |
| 1777986529 | 15° C | 75% | 1010.9 hPa | 0 mm | 0.89 m/s, 111° | - | - |
| 1777985931 | 14.44° C | 76% | 1010.7 hPa | 0 mm | 0.45 m/s, 141° | - | - |
| 1777985329 | 14.44° C | 76% | 1010.8 hPa | 0 mm | 0.89 m/s, 138° | - | - |
| 1777984902 | 14.44° C | 76% | 1010.4 hPa | 0 mm | 0 m/s | - | - |
| 1777984728 | 14.44° C | 76% | 1010.4 hPa | 0 mm | 0 m/s | - | - |
| 1777984131 | 13.89° C | 78% | 1010.4 hPa | 0 mm | 0 m/s | - | - |
| 1777982328 | 13.33° C | 81% | 1010.1 hPa | 0 mm | 0 m/s | - | - |
| 1777981728 | 13.89° C | 79% | 1009.8 hPa | 0 mm | 0 m/s | - | - |
| 1777981128 | 13.89° C | 78% | 1010.2 hPa | 0 mm | 0 m/s | - | - |
* Rain latest hour (hover to see other rain measurements)
** Current wind speed in m/s (hover to see current wind gust speed)